createdAt,value
2017-11-18T00:01:22.751Z,2.30
2017-11-18T00:03:50.454Z,2.30
2017-11-18T00:06:18.141Z,2.30
2017-11-18T00:08:46.536Z,2.30
2017-11-18T00:11:15.454Z,2.30
2017-11-18T00:13:43.126Z,2.30
2017-11-18T00:16:11.293Z,2.30
2017-11-18T00:18:39.270Z,2.30
2017-11-18T00:21:06.921Z,2.30
2017-11-18T00:23:34.585Z,2.30
2017-11-18T00:26:02.227Z,2.30
2017-11-18T00:28:29.885Z,2.30
2017-11-18T00:30:57.516Z,2.30
2017-11-18T00:33:25.964Z,2.30
2017-11-18T00:35:53.598Z,2.30
2017-11-18T00:38:21.292Z,2.30
2017-11-18T00:40:48.938Z,2.30
2017-11-18T00:43:16.611Z,2.20
2017-11-18T00:45:44.330Z,2.30
2017-11-18T00:48:11.985Z,2.30
2017-11-18T00:50:39.661Z,2.30
2017-11-18T00:53:07.363Z,2.30
2017-11-18T00:55:35.034Z,2.30
2017-11-18T00:58:03.429Z,2.20
2017-11-18T01:00:31.093Z,2.20
2017-11-18T01:02:58.713Z,2.20
2017-11-18T01:05:26.381Z,2.20
2017-11-18T01:07:54.770Z,2.20
2017-11-18T01:10:23.208Z,2.20
2017-11-18T01:12:50.880Z,2.20
2017-11-18T01:15:18.523Z,2.20
2017-11-18T01:17:46.936Z,2.20
2017-11-18T01:20:14.558Z,2.20
2017-11-18T01:22:42.226Z,2.20
2017-11-18T01:25:10.929Z,2.30
2017-11-18T01:27:38.574Z,2.20
2017-11-18T01:30:06.210Z,2.30
2017-11-18T01:32:34.482Z,2.30
2017-11-18T01:35:02.188Z,2.30
2017-11-18T01:37:29.864Z,2.40
2017-11-18T01:39:58.299Z,2.30
2017-11-18T01:42:25.964Z,2.30
2017-11-18T01:44:53.668Z,2.30
2017-11-18T01:47:22.083Z,2.20
2017-11-18T01:49:49.782Z,2.20
2017-11-18T01:52:17.449Z,2.20
2017-11-18T01:54:45.938Z,2.20
2017-11-18T01:57:14.335Z,2.30
2017-11-18T01:59:42.757Z,2.20
2017-11-18T02:02:24.270Z,2.20
2017-11-18T02:04:51.917Z,2.20
2017-11-18T02:07:19.589Z,2.20
2017-11-18T02:09:47.256Z,2.20
2017-11-18T02:12:14.977Z,2.20
2017-11-18T02:14:42.642Z,2.20
2017-11-18T02:17:10.317Z,2.20
2017-11-18T02:19:38.025Z,2.20
2017-11-18T02:22:05.745Z,2.10
2017-11-18T02:24:33.412Z,2.10
2017-11-18T02:27:01.145Z,2.10
2017-11-18T02:29:28.793Z,2.20
2017-11-18T02:31:56.529Z,2.20
2017-11-18T02:34:24.258Z,2.30
2017-11-18T02:36:51.949Z,2.30
2017-11-18T02:39:20.446Z,2.40
2017-11-18T02:41:48.142Z,2.30
2017-11-18T02:44:15.958Z,2.40
2017-11-18T02:46:43.675Z,2.40
2017-11-18T02:49:11.376Z,2.50
2017-11-18T02:51:39.864Z,2.60
2017-11-18T02:54:07.618Z,2.50
2017-11-18T02:56:36.112Z,2.60
2017-11-18T02:59:03.841Z,2.60
2017-11-18T03:01:31.559Z,2.70
2017-11-18T03:03:59.205Z,2.70
2017-11-18T03:06:26.857Z,2.70
2017-11-18T03:08:54.596Z,2.70
2017-11-18T03:11:23.009Z,2.70
2017-11-18T03:13:50.693Z,2.70
2017-11-18T03:16:18.425Z,2.70
2017-11-18T03:18:46.292Z,2.70
2017-11-18T03:21:13.933Z,2.60
2017-11-18T03:23:41.632Z,2.60
2017-11-18T03:26:09.317Z,2.50
2017-11-18T03:28:36.990Z,2.50
2017-11-18T03:31:05.435Z,2.50
2017-11-18T03:33:33.079Z,2.40
2017-11-18T03:36:00.795Z,2.50
2017-11-18T03:38:29.219Z,2.40
2017-11-18T03:40:56.864Z,2.40
2017-11-18T03:43:24.546Z,2.40
2017-11-18T03:45:52.214Z,2.40
2017-11-18T03:48:19.980Z,2.40
2017-11-18T03:50:47.600Z,2.40
2017-11-18T03:53:15.224Z,2.40
2017-11-18T03:55:43.834Z,2.40
2017-11-18T03:58:11.526Z,2.40
2017-11-18T04:00:39.299Z,2.40
2017-11-18T04:03:07.010Z,2.40
2017-11-18T04:05:35.485Z,2.40
2017-11-18T04:08:03.995Z,2.50
2017-11-18T04:10:31.685Z,2.40
2017-11-18T04:12:59.373Z,2.50
2017-11-18T04:15:27.008Z,2.50
2017-11-18T04:17:54.752Z,2.40
2017-11-18T04:20:22.405Z,2.40
2017-11-18T04:22:50.047Z,2.40
2017-11-18T04:25:17.718Z,2.40
2017-11-18T04:27:45.366Z,2.40
2017-11-18T04:30:13.052Z,2.40
2017-11-18T04:32:40.716Z,2.40
2017-11-18T04:35:08.464Z,2.50
2017-11-18T04:37:36.136Z,2.50
2017-11-18T04:40:03.847Z,2.60
2017-11-18T04:42:32.303Z,2.70
2017-11-18T04:44:59.969Z,2.70
2017-11-18T04:47:27.650Z,2.80
2017-11-18T04:49:56.129Z,2.70
2017-11-18T04:52:24.562Z,2.70
2017-11-18T04:54:52.260Z,2.70
2017-11-18T04:57:19.925Z,2.70
2017-11-18T04:59:47.566Z,2.70
2017-11-18T05:02:15.269Z,2.70
2017-11-18T05:04:42.925Z,2.70
2017-11-18T05:07:10.583Z,2.70
2017-11-18T05:09:39.021Z,2.80
2017-11-18T05:12:06.686Z,2.80
2017-11-18T05:14:34.377Z,2.80
2017-11-18T05:17:02.807Z,2.80
2017-11-18T05:19:30.523Z,2.80
2017-11-18T05:21:58.961Z,2.90
2017-11-18T05:24:26.632Z,2.90
2017-11-18T05:26:54.333Z,2.80
2017-11-18T05:29:22.014Z,2.90
2017-11-18T05:31:49.659Z,2.80
2017-11-18T05:34:17.360Z,2.80
2017-11-18T05:36:45.082Z,2.70
2017-11-18T05:39:12.785Z,2.80
2017-11-18T05:41:40.433Z,2.70
2017-11-18T05:44:08.122Z,2.70
2017-11-18T05:46:35.770Z,2.60
2017-11-18T05:49:03.469Z,2.70
2017-11-18T05:51:31.898Z,2.70
2017-11-18T05:53:59.520Z,2.60
2017-11-18T05:56:27.228Z,2.70
2017-11-18T05:58:54.862Z,2.70
2017-11-18T06:01:22.613Z,2.70
2017-11-18T06:03:50.252Z,2.80
2017-11-18T06:06:18.716Z,2.70
2017-11-18T06:08:47.114Z,2.70
2017-11-18T06:11:14.749Z,2.70
2017-11-18T06:13:42.413Z,2.80
2017-11-18T06:16:10.828Z,2.80
2017-11-18T06:18:38.521Z,2.80
2017-11-18T06:21:06.171Z,2.80
2017-11-18T06:23:33.831Z,2.80
2017-11-18T06:26:01.472Z,2.70
2017-11-18T06:28:29.134Z,2.80
2017-11-18T06:30:56.760Z,2.80
2017-11-18T06:33:25.288Z,2.70
2017-11-18T06:35:52.977Z,2.70
2017-11-18T06:38:20.641Z,2.90
2017-11-18T06:40:48.295Z,2.80
2017-11-18T06:43:15.910Z,2.80
2017-11-18T06:45:43.594Z,2.80
2017-11-18T06:48:11.220Z,2.80
2017-11-18T06:50:38.859Z,2.80
2017-11-18T06:53:06.525Z,2.80
2017-11-18T06:55:34.923Z,2.70
2017-11-18T06:58:02.576Z,2.70
2017-11-18T07:00:30.269Z,2.80
2017-11-18T07:02:57.971Z,2.80
2017-11-18T07:05:26.360Z,2.80
2017-11-18T07:07:54.826Z,2.80
2017-11-18T07:10:23.230Z,2.80
2017-11-18T07:12:50.897Z,2.80
2017-11-18T07:15:18.549Z,2.80
2017-11-18T07:17:47.099Z,2.80
2017-11-18T07:20:14.726Z,2.90
2017-11-18T07:22:42.393Z,2.90
2017-11-18T07:25:10.039Z,2.80
2017-11-18T07:27:37.713Z,2.90
2017-11-18T07:30:05.361Z,2.90
2017-11-18T07:32:32.985Z,2.90
2017-11-18T07:35:00.674Z,3.00
2017-11-18T07:37:29.075Z,3.10
2017-11-18T07:39:56.779Z,3.00
2017-11-18T07:42:25.173Z,3.20
2017-11-18T07:44:52.836Z,3.10
2017-11-18T07:47:20.526Z,3.20
2017-11-18T07:49:48.189Z,3.30
2017-11-18T07:52:15.847Z,3.30
2017-11-18T07:54:43.481Z,3.30
2017-11-18T07:57:11.141Z,3.30
2017-11-18T07:59:38.772Z,3.40
2017-11-18T08:02:07.194Z,3.40
2017-11-18T08:04:34.856Z,3.40
2017-11-18T08:07:02.577Z,3.40
2017-11-18T08:09:30.989Z,3.30
2017-11-18T08:11:58.657Z,3.30
2017-11-18T08:14:26.336Z,3.30
2017-11-18T08:16:53.957Z,3.30
2017-11-18T08:19:21.615Z,3.30
2017-11-18T08:21:49.245Z,3.40
2017-11-18T08:24:17.678Z,3.40
2017-11-18T08:26:45.363Z,3.30
2017-11-18T08:29:13.044Z,3.40
2017-11-18T08:31:41.446Z,3.50
2017-11-18T08:34:09.140Z,3.50
2017-11-18T08:36:36.905Z,3.50
2017-11-18T08:39:05.395Z,3.50
2017-11-18T08:41:33.108Z,3.50
2017-11-18T08:44:00.761Z,3.60
2017-11-18T08:46:28.472Z,3.60
2017-11-18T08:48:56.115Z,3.60
2017-11-18T08:51:23.795Z,3.60
2017-11-18T08:53:51.515Z,3.70
2017-11-18T08:56:19.273Z,3.60
2017-11-18T08:58:47.019Z,3.60
2017-11-18T09:01:15.510Z,3.70
2017-11-18T09:03:43.188Z,3.70
2017-11-18T09:06:10.898Z,3.60
2017-11-18T09:08:38.568Z,3.60
2017-11-18T09:11:06.238Z,3.60
2017-11-18T09:13:34.713Z,3.70
2017-11-18T09:16:03.169Z,3.80
2017-11-18T09:18:30.965Z,3.70
2017-11-18T09:20:59.431Z,3.90
2017-11-18T09:23:27.904Z,3.90
2017-11-18T09:25:55.572Z,3.90
2017-11-18T09:28:23.301Z,3.90
2017-11-18T09:30:51.083Z,4.00
2017-11-18T09:33:18.764Z,4.00
2017-11-18T09:35:47.266Z,4.00
2017-11-18T09:38:14.942Z,4.00
2017-11-18T09:40:42.596Z,4.00
2017-11-18T09:43:10.286Z,4.10
2017-11-18T09:45:37.973Z,4.10
2017-11-18T09:48:05.653Z,4.00
2017-11-18T09:50:33.324Z,4.10
2017-11-18T09:53:00.954Z,4.10
2017-11-18T09:55:28.699Z,4.00
2017-11-18T09:57:56.388Z,4.00
2017-11-18T10:00:24.940Z,4.00
2017-11-18T10:02:52.554Z,4.00
2017-11-18T10:05:20.293Z,4.10
2017-11-18T10:07:49.286Z,4.00
2017-11-18T10:10:17.670Z,4.10
2017-11-18T10:12:46.087Z,4.00
2017-11-18T10:15:13.799Z,4.00
2017-11-18T10:17:42.217Z,3.90
2017-11-18T10:20:09.942Z,3.90
2017-11-18T10:22:38.409Z,4.00
2017-11-18T10:25:07.559Z,4.00
2017-11-18T10:27:37.121Z,3.90
2017-11-18T10:30:04.852Z,3.90
2017-11-18T10:32:32.539Z,3.90
2017-11-18T10:35:00.991Z,3.90
2017-11-18T10:37:29.050Z,3.90
2017-11-18T10:39:56.741Z,3.90
2017-11-18T10:42:30.030Z,3.90
2017-11-18T10:44:57.733Z,3.90
2017-11-18T10:47:25.588Z,3.90
2017-11-18T10:49:54.188Z,3.90
2017-11-18T10:52:21.856Z,3.80
2017-11-18T10:54:49.504Z,3.80
2017-11-18T10:57:17.217Z,3.80
2017-11-18T10:59:44.829Z,3.80
2017-11-18T11:02:12.488Z,3.90
2017-11-18T11:04:40.166Z,3.90
2017-11-18T11:07:07.804Z,3.90
2017-11-18T11:09:35.508Z,3.80
2017-11-18T11:12:03.169Z,3.90
2017-11-18T11:14:30.833Z,3.90
2017-11-18T11:16:58.544Z,4.00
2017-11-18T11:19:26.194Z,4.00
2017-11-18T11:21:53.873Z,4.00
2017-11-18T11:24:21.566Z,4.10
2017-11-18T11:26:49.262Z,4.10
2017-11-18T11:29:18.745Z,4.10
2017-11-18T11:31:46.428Z,4.10
2017-11-18T11:34:14.988Z,4.20
2017-11-18T11:36:43.216Z,4.20
2017-11-18T11:39:10.880Z,4.20
2017-11-18T11:41:38.525Z,4.20
2017-11-18T11:44:06.197Z,4.20
2017-11-18T11:46:33.905Z,4.30
2017-11-18T11:49:01.738Z,4.20
2017-11-18T11:51:29.412Z,4.20
2017-11-18T11:53:57.116Z,4.30
2017-11-18T11:56:25.622Z,4.30
2017-11-18T11:58:53.312Z,4.30
2017-11-18T12:01:20.976Z,4.20
2017-11-18T12:03:48.677Z,4.20
2017-11-18T12:06:16.321Z,4.20
2017-11-18T12:08:44.756Z,4.40
2017-11-18T12:11:12.437Z,4.40
2017-11-18T12:13:40.120Z,4.40
2017-11-18T12:16:08.604Z,4.50
2017-11-18T12:18:37.045Z,4.60
2017-11-18T12:21:04.750Z,4.60
2017-11-18T12:23:33.218Z,4.70
2017-11-18T12:26:01.630Z,4.70
2017-11-18T12:28:29.282Z,4.70
2017-11-18T12:30:56.948Z,4.70
2017-11-18T12:33:24.647Z,4.70
2017-11-18T12:35:52.376Z,4.80
2017-11-18T12:38:20.155Z,4.80
2017-11-18T12:40:47.945Z,4.90
2017-11-18T12:43:15.617Z,4.90
2017-11-18T12:45:43.337Z,5.00
2017-11-18T12:48:10.975Z,5.00
2017-11-18T12:50:38.675Z,5.10
2017-11-18T12:53:06.326Z,5.10
2017-11-18T12:55:34.023Z,5.10
2017-11-18T12:58:01.700Z,5.10
2017-11-18T13:00:30.156Z,5.20
2017-11-18T13:02:57.888Z,5.10
2017-11-18T13:05:25.516Z,5.20
2017-11-18T13:07:53.241Z,5.20
2017-11-18T13:10:20.870Z,5.20
2017-11-18T13:12:48.495Z,5.20
2017-11-18T13:15:16.181Z,5.20
2017-11-18T13:17:43.865Z,5.20
2017-11-18T13:20:11.552Z,5.10
2017-11-18T13:22:39.940Z,5.10
2017-11-18T13:25:08.345Z,5.10
2017-11-18T13:27:36.080Z,5.10
2017-11-18T13:30:04.505Z,5.10
2017-11-18T13:32:32.185Z,5.10
2017-11-18T13:34:59.853Z,5.10
2017-11-18T13:37:27.561Z,5.10
2017-11-18T13:39:55.206Z,5.00
2017-11-18T13:42:23.689Z,5.00
2017-11-18T13:44:51.335Z,5.00
2017-11-18T13:47:19.837Z,5.10
2017-11-18T13:49:47.613Z,5.10
2017-11-18T13:52:15.259Z,5.10
2017-11-18T13:54:42.912Z,5.00
2017-11-18T13:57:10.537Z,5.00
2017-11-18T13:59:38.223Z,4.90
2017-11-18T14:02:06.649Z,5.00
2017-11-18T14:04:34.358Z,5.00
2017-11-18T14:07:02.820Z,5.00
2017-11-18T14:09:30.511Z,5.00
2017-11-18T14:11:58.224Z,5.00
2017-11-18T14:14:25.981Z,4.90
2017-11-18T14:16:53.781Z,4.90
2017-11-18T14:19:22.289Z,4.80
2017-11-18T14:21:49.988Z,4.80
2017-11-18T14:24:17.611Z,4.80
2017-11-18T14:26:45.309Z,4.80
2017-11-18T14:29:12.943Z,4.90
2017-11-18T14:31:40.666Z,4.80
2017-11-18T14:34:09.113Z,4.80
2017-11-18T14:36:36.802Z,4.80
2017-11-18T14:39:05.314Z,5.00
2017-11-18T14:41:33.040Z,4.90
2017-11-18T14:44:01.525Z,4.90
2017-11-18T14:46:30.013Z,4.80
2017-11-18T14:48:58.542Z,4.80
2017-11-18T14:51:26.255Z,4.80
2017-11-18T14:53:53.933Z,4.80
2017-11-18T14:56:21.653Z,4.80
2017-11-18T14:58:49.377Z,4.80
2017-11-18T15:01:17.101Z,4.80
2017-11-18T15:03:45.626Z,4.70
2017-11-18T15:08:47.544Z,4.80
2017-11-18T15:11:16.058Z,4.80
2017-11-18T15:13:43.794Z,4.80
2017-11-18T15:16:17.974Z,4.80
2017-11-18T15:18:56.418Z,4.80
2017-11-18T15:21:27.476Z,4.80
2017-11-18T15:24:00.760Z,4.80
2017-11-18T15:26:48.170Z,4.80
2017-11-18T15:29:22.328Z,4.70
2017-11-18T15:31:56.016Z,4.70
2017-11-18T15:34:27.490Z,4.70
2017-11-18T15:36:55.684Z,4.70
2017-11-18T15:39:23.428Z,4.80
2017-11-18T15:41:51.228Z,4.80
2017-11-18T15:44:31.449Z,4.80
2017-11-18T15:50:18.695Z,4.90
2017-11-18T15:55:51.085Z,4.80
2017-11-18T15:58:21.491Z,4.80
2017-11-18T16:00:54.914Z,4.80
2017-11-18T16:03:27.132Z,4.80
2017-11-18T16:05:55.253Z,4.80
2017-11-18T16:08:23.153Z,4.90
2017-11-18T16:10:50.864Z,4.90
2017-11-18T16:13:18.589Z,4.90
2017-11-18T16:15:46.304Z,4.90
2017-11-18T16:18:14.065Z,4.90
2017-11-18T16:20:41.774Z,4.90
2017-11-18T16:23:09.535Z,4.90
2017-11-18T16:25:37.300Z,4.90
2017-11-18T16:28:05.065Z,4.90
2017-11-18T16:30:32.849Z,4.90
2017-11-18T16:33:00.539Z,4.90
2017-11-18T16:35:28.311Z,4.90
2017-11-18T16:37:56.154Z,4.90
2017-11-18T16:40:23.844Z,4.90
2017-11-18T16:42:52.328Z,4.90
2017-11-18T16:45:20.798Z,4.80
2017-11-18T16:47:49.293Z,4.80
2017-11-18T16:50:17.786Z,4.80
2017-11-18T16:52:45.544Z,4.80
2017-11-18T16:55:13.224Z,4.80
2017-11-18T16:57:41.094Z,4.70
2017-11-18T17:00:08.807Z,4.70
2017-11-18T17:02:37.263Z,4.70
2017-11-18T17:05:04.984Z,4.70
2017-11-18T17:07:32.681Z,4.80
2017-11-18T17:10:00.484Z,4.80
2017-11-18T17:12:28.973Z,4.70
2017-11-18T17:14:56.683Z,4.70
2017-11-18T17:17:24.397Z,4.70
2017-11-18T17:19:52.115Z,4.70
2017-11-18T17:22:19.843Z,4.70
2017-11-18T17:24:47.678Z,4.70
2017-11-18T17:27:15.374Z,4.70
2017-11-18T17:29:43.057Z,4.70
2017-11-18T17:32:10.841Z,4.70
2017-11-18T17:34:39.314Z,4.80
2017-11-18T17:37:07.093Z,4.70
2017-11-18T17:39:35.535Z,4.70
2017-11-18T17:42:03.275Z,4.70
2017-11-18T17:44:30.959Z,4.70
2017-11-18T17:46:58.661Z,4.70
2017-11-18T17:49:26.647Z,4.70
2017-11-18T17:51:54.332Z,4.70
2017-11-18T17:54:22.125Z,4.60
2017-11-18T17:56:49.841Z,4.60
2017-11-18T17:59:17.579Z,4.60
2017-11-18T18:01:46.078Z,4.40
2017-11-18T18:04:13.784Z,4.40
2017-11-18T18:06:41.577Z,4.40
2017-11-18T18:09:10.145Z,4.40
2017-11-18T18:11:37.841Z,4.40
2017-11-18T18:14:05.626Z,4.40
2017-11-18T18:16:33.323Z,4.40
2017-11-18T18:19:00.977Z,4.30
2017-11-18T18:21:28.640Z,4.30
2017-11-18T18:23:56.309Z,4.30
2017-11-18T18:26:24.028Z,4.20
2017-11-18T18:28:51.699Z,4.20
2017-11-18T18:31:19.422Z,4.20
2017-11-18T18:33:47.124Z,4.30
2017-11-18T18:36:14.772Z,4.20
2017-11-18T18:38:42.519Z,4.20
2017-11-18T18:41:10.155Z,4.20
2017-11-18T18:43:37.832Z,4.20
2017-11-18T18:46:05.584Z,4.20
2017-11-18T18:48:33.211Z,4.00
2017-11-18T18:51:00.869Z,4.00
2017-11-18T18:53:28.561Z,4.00
2017-11-18T18:55:57.044Z,4.00
2017-11-18T18:58:24.781Z,4.00
2017-11-18T19:00:52.501Z,4.00
2017-11-18T19:03:20.277Z,4.00
2017-11-18T19:05:48.016Z,4.00
2017-11-18T19:08:15.724Z,4.00
2017-11-18T19:10:43.569Z,4.00
2017-11-18T19:13:11.429Z,4.00
2017-11-18T19:15:39.140Z,3.90
2017-11-18T19:18:07.611Z,3.90
2017-11-18T19:20:36.109Z,3.90
2017-11-18T19:23:03.793Z,3.90
2017-11-18T19:25:31.494Z,3.90
2017-11-18T19:27:59.201Z,3.90
2017-11-18T19:30:27.168Z,3.90
2017-11-18T19:32:54.960Z,3.90
2017-11-18T19:35:22.762Z,4.00
2017-11-18T19:37:51.304Z,4.00
2017-11-18T19:40:19.184Z,4.00
2017-11-18T19:42:46.996Z,4.00
2017-11-18T19:45:14.832Z,4.00
2017-11-18T19:47:43.357Z,4.00
2017-11-18T19:50:11.117Z,4.00
2017-11-18T19:52:38.956Z,4.00
2017-11-18T19:55:07.544Z,4.00
2017-11-18T19:57:35.331Z,4.00
2017-11-18T20:00:03.186Z,4.00
2017-11-18T20:02:31.114Z,4.00
2017-11-18T20:04:59.014Z,4.10
2017-11-18T20:07:27.166Z,4.10
2017-11-18T20:09:55.132Z,4.00
2017-11-18T20:12:23.700Z,4.00
2017-11-18T20:14:51.553Z,4.00
2017-11-18T20:17:19.376Z,4.00
2017-11-18T20:19:47.466Z,4.10
2017-11-18T20:22:15.337Z,4.00
2017-11-18T20:24:43.370Z,4.10
2017-11-18T20:27:11.258Z,4.10
2017-11-18T20:29:39.180Z,4.10
2017-11-18T20:32:07.740Z,4.00
2017-11-18T20:34:35.566Z,4.00
2017-11-18T20:37:03.400Z,4.10
2017-11-18T20:39:31.303Z,4.10
2017-11-18T20:41:59.170Z,4.10
2017-11-18T20:44:26.975Z,4.00
2017-11-18T20:46:55.602Z,4.10
2017-11-18T20:49:23.317Z,4.10
2017-11-18T20:51:51.884Z,4.00
2017-11-18T20:54:19.784Z,4.00
2017-11-18T20:56:47.721Z,4.00
2017-11-18T20:59:15.633Z,4.00
2017-11-18T21:01:43.628Z,4.00
2017-11-18T21:04:11.449Z,4.00
2017-11-18T21:06:39.319Z,4.10
2017-11-18T21:09:07.246Z,4.00
2017-11-18T21:11:35.203Z,4.00
2017-11-18T21:14:03.867Z,4.00
2017-11-18T21:16:31.776Z,4.00
2017-11-18T21:19:00.285Z,4.00
2017-11-18T21:21:28.934Z,4.00
2017-11-18T21:23:56.973Z,4.00
2017-11-18T21:26:24.835Z,4.00
2017-11-18T21:28:53.067Z,4.10
2017-11-18T21:31:20.782Z,4.00
2017-11-18T21:33:48.470Z,3.90
2017-11-18T21:36:16.209Z,4.00
2017-11-18T21:38:44.050Z,4.00
2017-11-18T21:41:11.824Z,4.00
2017-11-18T21:43:39.512Z,4.00
2017-11-18T21:46:08.082Z,3.90
2017-11-18T21:48:35.732Z,3.90
2017-11-18T21:51:03.510Z,3.90
2017-11-18T21:53:32.046Z,3.90
2017-11-18T21:55:59.693Z,3.90
2017-11-18T21:58:27.345Z,3.90
2017-11-18T22:00:55.754Z,3.90
2017-11-18T22:03:23.415Z,3.90
2017-11-18T22:05:51.200Z,3.90
2017-11-18T22:08:19.078Z,3.90
2017-11-18T22:10:47.508Z,3.90
2017-11-18T22:13:15.911Z,3.90
2017-11-18T22:15:43.569Z,3.80
2017-11-18T22:18:11.303Z,3.90
2017-11-18T22:20:39.046Z,4.00
2017-11-18T22:23:06.917Z,4.00
2017-11-18T22:25:34.776Z,4.00
2017-11-18T22:28:02.554Z,3.90
2017-11-18T22:30:30.983Z,3.90
2017-11-18T22:32:58.895Z,3.90
2017-11-18T22:35:26.634Z,3.80
2017-11-18T22:37:55.160Z,3.80
2017-11-18T22:40:22.953Z,3.80
2017-11-18T22:42:50.630Z,3.70
2017-11-18T22:45:18.343Z,3.70
2017-11-18T22:47:46.030Z,3.70
2017-11-18T22:50:13.785Z,3.70
2017-11-18T22:52:41.586Z,3.70
2017-11-18T22:55:10.054Z,3.60
2017-11-18T22:57:38.502Z,3.50
2017-11-18T23:00:06.371Z,3.50
2017-11-18T23:02:34.261Z,3.60
2017-11-18T23:05:02.114Z,3.60
2017-11-18T23:07:30.446Z,3.60
2017-11-18T23:09:58.529Z,3.50
2017-11-18T23:12:26.533Z,3.50
2017-11-18T23:14:55.082Z,3.50
2017-11-18T23:17:22.824Z,3.50
2017-11-18T23:19:50.735Z,3.50
2017-11-18T23:22:19.325Z,3.50
2017-11-18T23:24:47.238Z,3.50
2017-11-18T23:27:14.889Z,3.40
2017-11-18T23:29:42.554Z,3.50
2017-11-18T23:32:10.222Z,3.50
2017-11-18T23:34:37.872Z,3.50
2017-11-18T23:37:05.577Z,3.50
2017-11-18T23:39:33.232Z,3.50
2017-11-18T23:42:00.936Z,3.50
2017-11-18T23:44:28.592Z,3.60
2017-11-18T23:46:57.031Z,3.60
2017-11-18T23:49:24.721Z,3.60
2017-11-18T23:51:53.170Z,3.50
2017-11-18T23:54:20.866Z,3.50
2017-11-18T23:56:49.270Z,3.50
2017-11-18T23:59:16.979Z,3.50
